createdAt,value
2022-10-18T00:01:45.791Z,100.00
2022-10-18T00:06:54.025Z,100.00
2022-10-18T00:11:58.353Z,100.00
2022-10-18T00:17:00.032Z,100.00
2022-10-18T00:22:04.286Z,100.00
2022-10-18T00:27:05.980Z,100.00
2022-10-18T00:32:12.341Z,100.00
2022-10-18T00:37:18.649Z,100.00
2022-10-18T00:42:33.008Z,100.00
2022-10-18T00:47:38.252Z,100.00
2022-10-18T00:52:43.008Z,100.00
2022-10-18T00:57:46.447Z,100.00
2022-10-18T01:02:50.484Z,100.00
2022-10-18T01:07:57.528Z,100.00
2022-10-18T01:13:26.409Z,100.00
2022-10-18T01:18:34.666Z,100.00
2022-10-18T01:24:08.884Z,100.00
2022-10-18T01:29:31.880Z,100.00
2022-10-18T01:34:38.464Z,100.00
2022-10-18T01:39:42.369Z,100.00
2022-10-18T01:44:47.301Z,100.00
2022-10-18T01:50:00.653Z,100.00
2022-10-18T01:55:09.552Z,100.00
2022-10-18T02:00:19.853Z,100.00
2022-10-18T02:05:53.861Z,100.00
2022-10-18T02:11:10.522Z,100.00
2022-10-18T02:16:19.294Z,100.00
2022-10-18T02:21:21.555Z,100.00
2022-10-18T02:26:26.494Z,100.00
2022-10-18T02:31:39.994Z,100.00
2022-10-18T02:36:59.741Z,100.00
2022-10-18T02:42:06.974Z,100.00
2022-10-18T02:47:15.118Z,100.00
2022-10-18T02:52:21.608Z,100.00
2022-10-18T02:57:26.682Z,100.00
2022-10-18T03:02:28.363Z,100.00
2022-10-18T03:07:32.667Z,100.00
2022-10-18T03:12:36.595Z,100.00
2022-10-18T03:17:42.981Z,100.00
2022-10-18T03:22:49.042Z,100.00
2022-10-18T03:27:51.284Z,100.00
2022-10-18T03:33:00.012Z,100.00
2022-10-18T03:38:07.767Z,100.00
2022-10-18T03:43:10.311Z,100.00
2022-10-18T03:48:14.428Z,100.00
2022-10-18T03:53:18.331Z,100.00
2022-10-18T03:58:27.073Z,100.00
2022-10-18T04:03:28.774Z,100.00
2022-10-18T04:08:30.594Z,100.00
2022-10-18T04:13:34.796Z,100.00
2022-10-18T04:18:36.471Z,100.00
2022-10-18T04:23:38.976Z,100.00
2022-10-18T04:28:40.975Z,100.00
2022-10-18T04:33:42.705Z,100.00
2022-10-18T04:38:49.761Z,100.00
2022-10-18T04:43:54.511Z,100.00
2022-10-18T04:49:01.588Z,100.00
2022-10-18T04:54:06.171Z,100.00
2022-10-18T04:59:08.901Z,100.00
2022-10-18T05:04:11.513Z,100.00
2022-10-18T05:09:18.631Z,100.00
2022-10-18T05:14:22.571Z,100.00
2022-10-18T05:19:31.264Z,100.00
2022-10-18T05:24:37.440Z,100.00
2022-10-18T05:29:39.209Z,100.00
2022-10-18T05:34:42.996Z,100.00
2022-10-18T05:39:47.254Z,100.00
2022-10-18T05:44:51.553Z,100.00
2022-10-18T05:49:55.455Z,100.00
2022-10-18T05:54:59.774Z,100.00
2022-10-18T06:00:05.235Z,100.00
2022-10-18T06:05:18.939Z,100.00
2022-10-18T06:10:22.781Z,100.00
2022-10-18T06:15:27.064Z,100.00
2022-10-18T06:20:33.372Z,100.00
2022-10-18T06:25:37.418Z,100.00
2022-10-18T06:30:44.587Z,100.00
2022-10-18T06:36:02.480Z,100.00
2022-10-18T06:41:05.377Z,100.00
2022-10-18T06:46:11.752Z,100.00
2022-10-18T06:51:15.728Z,100.00
2022-10-18T06:56:22.291Z,100.00
2022-10-18T07:01:32.437Z,100.00
2022-10-18T07:06:34.373Z,100.00
2022-10-18T07:11:36.205Z,100.00
2022-10-18T07:16:42.164Z,100.00
2022-10-18T07:21:43.920Z,100.00
2022-10-18T07:26:47.897Z,100.00
2022-10-18T07:31:53.932Z,100.00
2022-10-18T07:36:57.974Z,100.00
2022-10-18T07:42:01.868Z,100.00
2022-10-18T07:47:07.846Z,100.00
2022-10-18T07:52:12.068Z,100.00
2022-10-18T07:57:16.141Z,100.00
2022-10-18T08:02:17.910Z,100.00
2022-10-18T08:07:26.009Z,100.00
2022-10-18T08:12:27.853Z,100.00
2022-10-18T08:17:34.770Z,100.00
2022-10-18T08:22:39.028Z,100.00
2022-10-18T08:27:42.851Z,100.00
2022-10-18T08:32:51.806Z,100.00
2022-10-18T08:37:54.206Z,100.00
2022-10-18T08:43:03.340Z,100.00
2022-10-18T08:48:09.187Z,100.00
2022-10-18T08:53:22.145Z,100.00
2022-10-18T08:58:26.762Z,100.00
2022-10-18T09:03:50.656Z,100.00
2022-10-18T09:09:01.867Z,100.00
2022-10-18T09:14:28.340Z,100.00
2022-10-18T09:19:29.994Z,100.00
2022-10-18T09:24:40.781Z,100.00
2022-10-18T09:29:57.491Z,100.00
2022-10-18T09:35:27.168Z,100.00
2022-10-18T09:40:34.018Z,100.00
2022-10-18T09:45:39.379Z,100.00
2022-10-18T09:51:12.174Z,100.00
2022-10-18T09:56:26.725Z,100.00
2022-10-18T10:01:32.262Z,100.00
2022-10-18T10:06:39.432Z,100.00
2022-10-18T10:11:47.554Z,100.00
2022-10-18T10:16:56.105Z,100.00
2022-10-18T10:22:06.780Z,100.00
2022-10-18T10:27:17.170Z,100.00
2022-10-18T10:32:21.165Z,100.00
2022-10-18T10:37:35.437Z,100.00
2022-10-18T10:42:38.923Z,100.00
2022-10-18T10:47:43.026Z,100.00
2022-10-18T10:52:47.290Z,99.43
2022-10-18T10:57:52.444Z,98.69
2022-10-18T11:03:27.813Z,98.15
2022-10-18T11:08:41.676Z,96.84
2022-10-18T11:19:49.180Z,94.39
2022-10-18T11:24:53.318Z,94.01
2022-10-18T11:30:23.480Z,92.27
2022-10-18T11:35:43.637Z,90.84
2022-10-18T11:41:22.592Z,85.88
2022-10-18T11:46:49.013Z,82.37
2022-10-18T11:52:09.158Z,72.23
2022-10-18T11:57:20.102Z,70.96
2022-10-18T12:02:44.535Z,68.16
2022-10-18T12:07:55.711Z,67.01
2022-10-18T12:13:02.083Z,69.13
2022-10-18T12:18:11.740Z,67.43
2022-10-18T12:23:20.608Z,61.49
2022-10-18T12:28:44.562Z,58.46
2022-10-18T12:33:53.458Z,57.38
2022-10-18T12:39:03.827Z,60.99
2022-10-18T12:44:06.972Z,55.13
2022-10-18T12:49:14.851Z,53.95
2022-10-18T12:54:25.415Z,49.69
2022-10-18T12:59:28.093Z,49.81
2022-10-18T13:04:33.518Z,47.17
2022-10-18T13:09:37.225Z,46.87
2022-10-18T13:15:24.690Z,48.04
2022-10-18T13:20:54.426Z,48.51
2022-10-18T13:26:15.918Z,49.29
2022-10-18T13:31:37.603Z,51.44
2022-10-18T13:36:42.378Z,53.33
2022-10-18T13:41:46.751Z,52.20
2022-10-18T13:46:53.267Z,54.92
2022-10-18T13:52:37.288Z,57.92
2022-10-18T13:58:06.281Z,58.11
2022-10-18T14:03:54.975Z,60.65
2022-10-18T14:09:13.770Z,60.31
2022-10-18T14:14:46.008Z,62.53
2022-10-18T14:19:57.890Z,61.44
2022-10-18T14:25:17.382Z,63.66
2022-10-18T14:30:20.928Z,63.23
2022-10-18T14:35:32.964Z,63.32
2022-10-18T14:40:38.944Z,65.73
2022-10-18T14:45:45.070Z,65.10
2022-10-18T14:50:59.195Z,67.28
2022-10-18T14:56:05.269Z,69.37
2022-10-18T15:01:07.103Z,69.02
2022-10-18T15:06:19.184Z,69.04
2022-10-18T15:11:21.146Z,68.98
2022-10-18T15:16:28.281Z,70.79
2022-10-18T15:21:32.728Z,70.49
2022-10-18T15:26:34.528Z,71.25
2022-10-18T15:31:37.655Z,71.42
2022-10-18T15:41:46.141Z,71.82
2022-10-18T15:47:20.288Z,73.87
2022-10-18T15:52:22.194Z,74.42
2022-10-18T15:57:29.126Z,74.85
2022-10-18T16:02:38.106Z,75.17
2022-10-18T16:07:42.004Z,76.27
2022-10-18T16:12:43.907Z,77.08
2022-10-18T16:17:53.802Z,77.74
2022-10-18T16:22:55.683Z,78.57
2022-10-18T16:28:00.051Z,78.35
2022-10-18T16:33:04.977Z,79.55
2022-10-18T16:38:11.640Z,80.46
2022-10-18T16:43:18.402Z,80.68
2022-10-18T16:48:22.673Z,81.01
2022-10-18T16:53:26.113Z,80.96
2022-10-18T16:58:33.008Z,81.67
2022-10-18T17:03:38.550Z,82.03
2022-10-18T17:08:43.125Z,83.25
2022-10-18T17:13:50.861Z,82.93
2022-10-18T17:18:52.834Z,83.06
2022-10-18T17:24:00.441Z,82.95
2022-10-18T17:29:09.961Z,83.42
2022-10-18T17:34:12.679Z,83.32
2022-10-18T17:39:19.795Z,83.63
2022-10-18T17:44:22.341Z,83.63
2022-10-18T17:49:24.602Z,83.67
2022-10-18T17:54:26.368Z,83.64
2022-10-18T17:59:29.073Z,83.03
2022-10-18T18:04:30.790Z,83.91
2022-10-18T18:09:32.569Z,83.30
2022-10-18T18:14:34.521Z,83.68
2022-10-18T18:19:36.561Z,83.95
2022-10-18T18:24:41.178Z,84.18
2022-10-18T18:29:43.946Z,83.97
2022-10-18T18:34:48.202Z,83.90
2022-10-18T18:39:50.813Z,84.04
2022-10-18T18:44:52.973Z,84.85
2022-10-18T18:49:55.827Z,84.89
2022-10-18T18:54:57.666Z,85.06
2022-10-18T19:00:01.610Z,86.08
2022-10-18T19:05:03.768Z,86.03
2022-10-18T19:10:06.917Z,86.21
2022-10-18T19:15:10.076Z,86.59
2022-10-18T19:20:15.198Z,86.87
2022-10-18T19:25:17.030Z,87.75
2022-10-18T19:30:22.407Z,88.74
2022-10-18T19:35:26.484Z,88.73
2022-10-18T19:40:28.295Z,89.97
2022-10-18T19:45:32.739Z,90.46
2022-10-18T19:50:38.140Z,91.55
2022-10-18T19:55:39.923Z,92.10
2022-10-18T20:00:44.687Z,91.95
2022-10-18T20:05:57.940Z,93.15
2022-10-18T20:11:11.521Z,93.38
2022-10-18T20:16:18.854Z,94.21
2022-10-18T20:21:20.584Z,93.92
2022-10-18T20:26:25.441Z,94.87
2022-10-18T20:31:32.414Z,94.85
2022-10-18T20:36:36.296Z,95.10
2022-10-18T20:41:42.771Z,95.76
2022-10-18T20:46:44.557Z,96.55
2022-10-18T20:51:47.282Z,96.86
2022-10-18T20:56:55.888Z,96.82
2022-10-18T21:02:06.415Z,97.14
2022-10-18T21:07:08.119Z,97.24
2022-10-18T21:12:13.281Z,96.89
2022-10-18T21:17:14.995Z,97.70
2022-10-18T21:22:21.139Z,98.02
2022-10-18T21:27:23.862Z,98.61
2022-10-18T21:32:25.527Z,97.71
2022-10-18T21:37:31.830Z,98.14
2022-10-18T21:42:36.556Z,97.95
2022-10-18T21:47:40.709Z,98.34
2022-10-18T21:52:45.420Z,98.66
2022-10-18T21:57:51.861Z,99.44
2022-10-18T22:03:09.586Z,100.00
2022-10-18T22:08:12.292Z,100.00
2022-10-18T22:13:16.049Z,100.00
2022-10-18T22:18:19.913Z,100.00
2022-10-18T22:23:33.692Z,100.00
2022-10-18T22:28:36.219Z,100.00
2022-10-18T22:33:38.689Z,100.00
2022-10-18T22:38:45.728Z,100.00
2022-10-18T22:43:53.037Z,100.00
2022-10-18T22:48:57.977Z,100.00
2022-10-18T22:54:02.047Z,100.00
2022-10-18T22:59:05.802Z,100.00
2022-10-18T23:04:12.704Z,100.00
2022-10-18T23:09:16.864Z,100.00
2022-10-18T23:14:19.010Z,100.00
2022-10-18T23:19:22.694Z,100.00
2022-10-18T23:24:24.525Z,100.00
2022-10-18T23:29:28.545Z,100.00
2022-10-18T23:34:32.722Z,100.00
2022-10-18T23:39:37.182Z,100.00
2022-10-18T23:44:43.520Z,100.00
2022-10-18T23:49:53.216Z,100.00
2022-10-18T23:54:57.234Z,100.00
